This is the latest recevied weather packets stored in our database for station/object KI4HRG. If no packets are shown the sender has not sent any weather packets the latest 10 day(s).
| Time | Temp. | Humidity | Pressure | Rain* | Wind** | Luminosity | Snow |
|---|---|---|---|---|---|---|---|
| 1777737502 | 16.11° C | 55% | 1016.3 hPa | 0 mm | - | 439 W/m² | - |
| 1777737200 | 16.67° C | 53% | 1016.2 hPa | 0 mm | - | 416 W/m² | - |
| 1777736896 | 16.67° C | 56% | 1016.2 hPa | 0 mm | - | 409 W/m² | - |
| 1777736288 | 16.11° C | 58% | 1016.1 hPa | 0 mm | - | 324 W/m² | - |
| 1777735984 | 16.67° C | 53% | 1015.9 hPa | 0 mm | - | 448 W/m² | - |
| 1777735682 | 16.11° C | 56% | 1016.2 hPa | 0 mm | - | 624 W/m² | - |
| 1777735379 | 15.56° C | 57% | 1016 hPa | 0 mm | - | 394 W/m² | - |
| 1777735076 | 15.56° C | 58% | 1015.9 hPa | 0 mm | - | 565 W/m² | - |
| 1777734773 | 15.56° C | 57% | 1016 hPa | 0 mm | - | 425 W/m² | - |
| 1777734471 | 15° C | 59% | 1015.9 hPa | 0 mm | - | 437 W/m² | - |
| 1777734168 | 15° C | 60% | 1015.7 hPa | 0 mm | - | 686 W/m² | - |
| 1777733864 | 15° C | 60% | 1015.7 hPa | 0 mm | - | 244 W/m² | - |
| 1777733560 | 15° C | 60% | 1015.5 hPa | 0 mm | - | 199 W/m² | - |
| 1777733257 | 15° C | 61% | 1015.6 hPa | 0 mm | - | 206 W/m² | - |
| 1777732954 | 15° C | 61% | 1015.7 hPa | 0 mm | - | 217 W/m² | - |
| 1777732650 | 14.44° C | 63% | 1015.4 hPa | 0 mm | - | 211 W/m² | - |
| 1777732347 | 14.44° C | 61% | 1015.5 hPa | 0 mm | - | 227 W/m² | - |
| 1777732045 | 14.44° C | 63% | 1015.6 hPa | 0 mm | - | 229 W/m² | - |
| 1777731741 | 13.89° C | 63% | 1015.6 hPa | 0 mm | - | 194 W/m² | - |
| 1777731438 | 13.89° C | 64% | 1015.4 hPa | 0 mm | - | 205 W/m² | - |
| 1777731137 | 14.44° C | 62% | 1015.3 hPa | 0 mm | - | 247 W/m² | - |
| 1777730835 | 14.44° C | 63% | 1015.3 hPa | 0 mm | - | 266 W/m² | - |
| 1777730532 | 13.89° C | 63% | 1015.3 hPa | 0 mm | - | 409 W/m² | - |
| 1777730227 | 13.89° C | 64% | 1015.5 hPa | 0 mm | - | 196 W/m² | - |
| 1777729925 | 13.89° C | 64% | 1015.3 hPa | 0 mm | - | 165 W/m² | - |
* Rain latest hour (hover to see other rain measurements)
** Current wind speed in m/s (hover to see current wind gust speed)